sensor_id;sensor_type;location;lat;lon;timestamp;temperature;humidity
74171;DHT22;62526;50.948;6.590;2023-04-25T00:02:20;7.40;99.90
74171;DHT22;62526;50.948;6.590;2023-04-25T00:04:47;7.30;99.90
74171;DHT22;62526;50.948;6.590;2023-04-25T00:07:14;7.20;99.90
74171;DHT22;62526;50.948;6.590;2023-04-25T00:09:41;7.10;99.90
74171;DHT22;62526;50.948;6.590;2023-04-25T00:12:07;7.10;99.90
74171;DHT22;62526;50.948;6.590;2023-04-25T00:14:33;7.00;99.90
74171;DHT22;62526;50.948;6.590;2023-04-25T00:17:00;7.00;99.90
74171;DHT22;62526;50.948;6.590;2023-04-25T00:19:27;7.00;99.90
74171;DHT22;62526;50.948;6.590;2023-04-25T00:21:54;7.00;99.90
74171;DHT22;62526;50.948;6.590;2023-04-25T00:24:21;7.10;99.90
74171;DHT22;62526;50.948;6.590;2023-04-25T00:26:47;6.90;99.90
74171;DHT22;62526;50.948;6.590;2023-04-25T00:29:14;6.80;99.90
74171;DHT22;62526;50.948;6.590;2023-04-25T00:31:41;6.80;99.90
74171;DHT22;62526;50.948;6.590;2023-04-25T00:34:07;6.80;99.90
74171;DHT22;62526;50.948;6.590;2023-04-25T00:36:34;6.80;99.90
74171;DHT22;62526;50.948;6.590;2023-04-25T00:39:00;6.80;99.90
74171;DHT22;62526;50.948;6.590;2023-04-25T00:41:27;6.90;99.90
74171;DHT22;62526;50.948;6.590;2023-04-25T00:43:54;6.90;99.90
74171;DHT22;62526;50.948;6.590;2023-04-25T00:46:20;7.00;99.90
74171;DHT22;62526;50.948;6.590;2023-04-25T00:48:47;7.10;99.90
74171;DHT22;62526;50.948;6.590;2023-04-25T00:51:14;7.10;99.90
74171;DHT22;62526;50.948;6.590;2023-04-25T00:53:40;7.10;99.90
74171;DHT22;62526;50.948;6.590;2023-04-25T00:56:07;7.10;99.90
74171;DHT22;62526;50.948;6.590;2023-04-25T00:58:33;7.10;99.90
74171;DHT22;62526;50.948;6.590;2023-04-25T01:01:00;7.10;99.90
74171;DHT22;62526;50.948;6.590;2023-04-25T01:03:26;7.10;99.90
74171;DHT22;62526;50.948;6.590;2023-04-25T01:05:53;7.00;99.90
74171;DHT22;62526;50.948;6.590;2023-04-25T01:08:21;7.10;99.90
74171;DHT22;62526;50.948;6.590;2023-04-25T01:10:46;7.10;99.90
74171;DHT22;62526;50.948;6.590;2023-04-25T01:13:13;7.00;99.90
74171;DHT22;62526;50.948;6.590;2023-04-25T01:15:39;7.80;99.90
74171;DHT22;62526;50.948;6.590;2023-04-25T01:18:06;7.00;99.90
74171;DHT22;62526;50.948;6.590;2023-04-25T01:20:33;7.00;99.90
74171;DHT22;62526;50.948;6.590;2023-04-25T01:22:59;7.00;99.90
74171;DHT22;62526;50.948;6.590;2023-04-25T01:25:26;7.00;99.90
74171;DHT22;62526;50.948;6.590;2023-04-25T01:27:52;6.90;99.90
74171;DHT22;62526;50.948;6.590;2023-04-25T01:30:19;6.90;99.90
74171;DHT22;62526;50.948;6.590;2023-04-25T01:32:46;6.90;99.90
74171;DHT22;62526;50.948;6.590;2023-04-25T01:35:12;6.90;99.90
74171;DHT22;62526;50.948;6.590;2023-04-25T01:37:40;6.90;99.90
74171;DHT22;62526;50.948;6.590;2023-04-25T01:40:08;6.90;99.90
74171;DHT22;62526;50.948;6.590;2023-04-25T01:42:34;6.80;99.90
74171;DHT22;62526;50.948;6.590;2023-04-25T01:45:00;6.80;99.90
74171;DHT22;62526;50.948;6.590;2023-04-25T01:47:27;6.90;99.90
74171;DHT22;62526;50.948;6.590;2023-04-25T01:49:53;6.90;99.90
74171;DHT22;62526;50.948;6.590;2023-04-25T01:52:20;7.00;99.90
74171;DHT22;62526;50.948;6.590;2023-04-25T01:54:46;7.10;99.90
74171;DHT22;62526;50.948;6.590;2023-04-25T01:57:13;7.10;99.90
74171;DHT22;62526;50.948;6.590;2023-04-25T01:59:40;7.20;99.90
74171;DHT22;62526;50.948;6.590;2023-04-25T02:02:06;7.20;99.90
74171;DHT22;62526;50.948;6.590;2023-04-25T02:04:33;7.30;99.90
74171;DHT22;62526;50.948;6.590;2023-04-25T02:06:59;7.30;99.90
74171;DHT22;62526;50.948;6.590;2023-04-25T02:09:26;7.30;99.90
74171;DHT22;62526;50.948;6.590;2023-04-25T02:11:53;7.30;99.90
74171;DHT22;62526;50.948;6.590;2023-04-25T02:14:19;7.30;99.90
74171;DHT22;62526;50.948;6.590;2023-04-25T02:16:46;7.30;99.90
74171;DHT22;62526;50.948;6.590;2023-04-25T02:19:12;7.30;99.90
74171;DHT22;62526;50.948;6.590;2023-04-25T02:21:39;7.30;99.90
74171;DHT22;62526;50.948;6.590;2023-04-25T02:24:06;7.30;99.90
74171;DHT22;62526;50.948;6.590;2023-04-25T02:26:33;7.40;99.90
74171;DHT22;62526;50.948;6.590;2023-04-25T02:28:59;7.30;99.90
74171;DHT22;62526;50.948;6.590;2023-04-25T02:31:26;7.30;99.90
74171;DHT22;62526;50.948;6.590;2023-04-25T02:33:53;7.30;99.90
74171;DHT22;62526;50.948;6.590;2023-04-25T02:36:19;7.30;99.90
74171;DHT22;62526;50.948;6.590;2023-04-25T02:38:46;7.30;99.90
74171;DHT22;62526;50.948;6.590;2023-04-25T02:41:12;7.30;99.90
74171;DHT22;62526;50.948;6.590;2023-04-25T02:43:39;7.30;99.90
74171;DHT22;62526;50.948;6.590;2023-04-25T02:46:06;7.30;99.90
74171;DHT22;62526;50.948;6.590;2023-04-25T02:48:32;7.30;99.90
74171;DHT22;62526;50.948;6.590;2023-04-25T02:50:59;7.30;99.90
74171;DHT22;62526;50.948;6.590;2023-04-25T02:53:25;7.30;99.90
74171;DHT22;62526;50.948;6.590;2023-04-25T02:55:52;7.30;99.90
74171;DHT22;62526;50.948;6.590;2023-04-25T02:58:19;7.30;99.90
74171;DHT22;62526;50.948;6.590;2023-04-25T03:00:45;7.30;99.90
74171;DHT22;62526;50.948;6.590;2023-04-25T03:03:12;7.30;99.90
74171;DHT22;62526;50.948;6.590;2023-04-25T03:05:38;7.20;99.90
74171;DHT22;62526;50.948;6.590;2023-04-25T03:08:05;7.20;99.90
74171;DHT22;62526;50.948;6.590;2023-04-25T03:10:32;7.20;99.90
74171;DHT22;62526;50.948;6.590;2023-04-25T03:12:58;7.20;99.90
74171;DHT22;62526;50.948;6.590;2023-04-25T03:15:25;7.20;99.90
74171;DHT22;62526;50.948;6.590;2023-04-25T03:17:51;7.20;99.90
74171;DHT22;62526;50.948;6.590;2023-04-25T03:20:18;7.20;99.90
74171;DHT22;62526;50.948;6.590;2023-04-25T03:22:45;7.20;99.90
74171;DHT22;62526;50.948;6.590;2023-04-25T03:25:11;7.20;99.90
74171;DHT22;62526;50.948;6.590;2023-04-25T03:27:38;7.20;99.90
74171;DHT22;62526;50.948;6.590;2023-04-25T03:30:05;7.20;99.90
74171;DHT22;62526;50.948;6.590;2023-04-25T03:32:33;7.10;99.90
74171;DHT22;62526;50.948;6.590;2023-04-25T03:34:59;7.10;99.90
74171;DHT22;62526;50.948;6.590;2023-04-25T03:37:25;7.10;99.90
74171;DHT22;62526;50.948;6.590;2023-04-25T03:39:52;7.10;99.90
74171;DHT22;62526;50.948;6.590;2023-04-25T03:42:19;7.10;99.90
74171;DHT22;62526;50.948;6.590;2023-04-25T03:44:45;7.10;99.90
74171;DHT22;62526;50.948;6.590;2023-04-25T03:47:12;7.10;99.90
74171;DHT22;62526;50.948;6.590;2023-04-25T03:49:38;7.10;99.90
74171;DHT22;62526;50.948;6.590;2023-04-25T03:52:05;7.10;99.90
74171;DHT22;62526;50.948;6.590;2023-04-25T03:54:32;7.10;99.90
74171;DHT22;62526;50.948;6.590;2023-04-25T03:56:58;7.10;99.90
74171;DHT22;62526;50.948;6.590;2023-04-25T03:59:25;7.10;99.90
74171;DHT22;62526;50.948;6.590;2023-04-25T04:01:52;7.10;99.90
74171;DHT22;62526;50.948;6.590;2023-04-25T04:04:18;7.10;99.90
74171;DHT22;62526;50.948;6.590;2023-04-25T04:06:45;7.10;99.90
74171;DHT22;62526;50.948;6.590;2023-04-25T04:09:11;7.10;99.90
74171;DHT22;62526;50.948;6.590;2023-04-25T04:11:38;7.10;99.90
74171;DHT22;62526;50.948;6.590;2023-04-25T04:14:06;7.10;99.90
74171;DHT22;62526;50.948;6.590;2023-04-25T04:16:32;7.10;99.90
74171;DHT22;62526;50.948;6.590;2023-04-25T04:18:59;7.10;99.90
74171;DHT22;62526;50.948;6.590;2023-04-25T04:21:25;7.10;99.90
74171;DHT22;62526;50.948;6.590;2023-04-25T04:23:52;7.10;99.90
74171;DHT22;62526;50.948;6.590;2023-04-25T04:26:18;7.20;99.90
74171;DHT22;62526;50.948;6.590;2023-04-25T04:28:45;7.20;99.90
74171;DHT22;62526;50.948;6.590;2023-04-25T04:31:12;7.20;99.90
74171;DHT22;62526;50.948;6.590;2023-04-25T04:33:38;7.20;99.90
74171;DHT22;62526;50.948;6.590;2023-04-25T04:36:05;7.20;99.90
74171;DHT22;62526;50.948;6.590;2023-04-25T04:38:32;7.20;99.90
74171;DHT22;62526;50.948;6.590;2023-04-25T04:40:59;7.30;99.90
74171;DHT22;62526;50.948;6.590;2023-04-25T04:43:25;7.30;99.90
74171;DHT22;62526;50.948;6.590;2023-04-25T04:45:52;7.30;99.90
74171;DHT22;62526;50.948;6.590;2023-04-25T04:48:18;8.20;99.90
74171;DHT22;62526;50.948;6.590;2023-04-25T04:50:45;7.30;99.90
74171;DHT22;62526;50.948;6.590;2023-04-25T04:53:12;7.30;99.90
74171;DHT22;62526;50.948;6.590;2023-04-25T04:55:38;7.40;99.90
74171;DHT22;62526;50.948;6.590;2023-04-25T04:58:05;7.40;99.90
74171;DHT22;62526;50.948;6.590;2023-04-25T05:00:32;7.40;99.90
74171;DHT22;62526;50.948;6.590;2023-04-25T05:02:58;7.40;99.90
74171;DHT22;62526;50.948;6.590;2023-04-25T05:05:25;7.40;99.90
74171;DHT22;62526;50.948;6.590;2023-04-25T05:07:51;7.40;99.90
74171;DHT22;62526;50.948;6.590;2023-04-25T05:10:18;7.40;99.90
74171;DHT22;62526;50.948;6.590;2023-04-25T05:12:44;7.50;99.90
74171;DHT22;62526;50.948;6.590;2023-04-25T05:15:11;7.50;99.90
74171;DHT22;62526;50.948;6.590;2023-04-25T05:17:38;7.50;99.90
74171;DHT22;62526;50.948;6.590;2023-04-25T05:20:06;7.50;99.90
74171;DHT22;62526;50.948;6.590;2023-04-25T05:22:32;7.50;99.90
74171;DHT22;62526;50.948;6.590;2023-04-25T05:24:59;7.50;99.90
74171;DHT22;62526;50.948;6.590;2023-04-25T05:27:26;7.50;99.90
74171;DHT22;62526;50.948;6.590;2023-04-25T05:29:52;7.50;99.90
74171;DHT22;62526;50.948;6.590;2023-04-25T05:32:19;7.60;99.90
74171;DHT22;62526;50.948;6.590;2023-04-25T05:34:45;7.60;99.90
74171;DHT22;62526;50.948;6.590;2023-04-25T05:37:12;7.70;99.90
74171;DHT22;62526;50.948;6.590;2023-04-25T05:39:38;7.70;99.90
74171;DHT22;62526;50.948;6.590;2023-04-25T05:42:06;7.80;99.90
74171;DHT22;62526;50.948;6.590;2023-04-25T05:44:32;7.80;99.90
74171;DHT22;62526;50.948;6.590;2023-04-25T05:46:59;7.90;99.90
74171;DHT22;62526;50.948;6.590;2023-04-25T05:49:26;7.90;99.90
74171;DHT22;62526;50.948;6.590;2023-04-25T05:51:52;7.90;99.90
74171;DHT22;62526;50.948;6.590;2023-04-25T05:54:19;8.00;99.90
74171;DHT22;62526;50.948;6.590;2023-04-25T05:56:45;8.00;99.90
74171;DHT22;62526;50.948;6.590;2023-04-25T05:59:12;8.00;99.90
74171;DHT22;62526;50.948;6.590;2023-04-25T06:01:39;8.20;99.90
74171;DHT22;62526;50.948;6.590;2023-04-25T06:04:06;8.10;99.90
74171;DHT22;62526;50.948;6.590;2023-04-25T06:06:33;8.20;99.90
74171;DHT22;62526;50.948;6.590;2023-04-25T06:08:59;8.20;99.90
74171;DHT22;62526;50.948;6.590;2023-04-25T06:11:26;8.10;99.90
74171;DHT22;62526;50.948;6.590;2023-04-25T06:13:52;8.20;99.90
74171;DHT22;62526;50.948;6.590;2023-04-25T06:16:19;8.20;99.90
74171;DHT22;62526;50.948;6.590;2023-04-25T06:18:46;8.10;99.90
74171;DHT22;62526;50.948;6.590;2023-04-25T06:21:12;8.10;99.90
74171;DHT22;62526;50.948;6.590;2023-04-25T06:23:39;8.20;99.90
74171;DHT22;62526;50.948;6.590;2023-04-25T06:26:05;8.20;99.90
74171;DHT22;62526;50.948;6.590;2023-04-25T06:28:32;8.30;99.90
74171;DHT22;62526;50.948;6.590;2023-04-25T06:30:59;8.30;99.90
74171;DHT22;62526;50.948;6.590;2023-04-25T06:33:26;8.40;99.90
74171;DHT22;62526;50.948;6.590;2023-04-25T06:35:53;8.50;99.90
74171;DHT22;62526;50.948;6.590;2023-04-25T06:38:19;8.50;99.90
74171;DHT22;62526;50.948;6.590;2023-04-25T06:40:46;8.50;99.90
74171;DHT22;62526;50.948;6.590;2023-04-25T06:43:13;8.60;99.90
74171;DHT22;62526;50.948;6.590;2023-04-25T06:45:39;8.60;99.90
74171;DHT22;62526;50.948;6.590;2023-04-25T06:48:06;8.60;99.90
74171;DHT22;62526;50.948;6.590;2023-04-25T06:50:33;8.50;99.90
74171;DHT22;62526;50.948;6.590;2023-04-25T06:52:59;8.50;99.90
74171;DHT22;62526;50.948;6.590;2023-04-25T06:55:26;8.60;99.90
74171;DHT22;62526;50.948;6.590;2023-04-25T06:57:52;8.70;99.90
74171;DHT22;62526;50.948;6.590;2023-04-25T07:00:19;8.80;99.90
74171;DHT22;62526;50.948;6.590;2023-04-25T07:02:46;8.90;99.90
74171;DHT22;62526;50.948;6.590;2023-04-25T07:05:12;9.00;99.90
74171;DHT22;62526;50.948;6.590;2023-04-25T07:07:39;9.10;99.90
74171;DHT22;62526;50.948;6.590;2023-04-25T07:10:06;9.10;99.90
74171;DHT22;62526;50.948;6.590;2023-04-25T07:12:32;9.10;99.90
74171;DHT22;62526;50.948;6.590;2023-04-25T07:14:59;9.20;99.90
74171;DHT22;62526;50.948;6.590;2023-04-25T07:17:26;9.20;99.90
74171;DHT22;62526;50.948;6.590;2023-04-25T07:19:52;9.20;99.90
74171;DHT22;62526;50.948;6.590;2023-04-25T07:22:19;9.20;99.90
74171;DHT22;62526;50.948;6.590;2023-04-25T07:24:45;9.30;99.90
74171;DHT22;62526;50.948;6.590;2023-04-25T07:27:12;9.30;99.90
74171;DHT22;62526;50.948;6.590;2023-04-25T07:29:39;9.30;99.90
74171;DHT22;62526;50.948;6.590;2023-04-25T07:32:05;9.40;99.90
74171;DHT22;62526;50.948;6.590;2023-04-25T07:34:32;9.50;99.90
74171;DHT22;62526;50.948;6.590;2023-04-25T07:36:58;9.60;99.90
74171;DHT22;62526;50.948;6.590;2023-04-25T07:39:25;9.70;99.90
74171;DHT22;62526;50.948;6.590;2023-04-25T07:41:52;9.80;99.90
74171;DHT22;62526;50.948;6.590;2023-04-25T07:44:18;10.00;99.90
74171;DHT22;62526;50.948;6.590;2023-04-25T07:46:45;10.00;99.90
74171;DHT22;62526;50.948;6.590;2023-04-25T07:49:11;10.00;99.90
74171;DHT22;62526;50.948;6.590;2023-04-25T07:51:38;10.10;99.90
74171;DHT22;62526;50.948;6.590;2023-04-25T07:54:05;10.20;99.90
74171;DHT22;62526;50.948;6.590;2023-04-25T07:56:31;10.40;99.90
74171;DHT22;62526;50.948;6.590;2023-04-25T07:58:58;10.50;99.90
74171;DHT22;62526;50.948;6.590;2023-04-25T08:01:24;10.60;99.90
74171;DHT22;62526;50.948;6.590;2023-04-25T08:03:51;10.70;99.90
74171;DHT22;62526;50.948;6.590;2023-04-25T08:06:18;10.80;99.90
74171;DHT22;62526;50.948;6.590;2023-04-25T08:08:45;10.80;99.90
74171;DHT22;62526;50.948;6.590;2023-04-25T08:11:11;10.60;99.90
74171;DHT22;62526;50.948;6.590;2023-04-25T08:13:38;10.60;99.90
74171;DHT22;62526;50.948;6.590;2023-04-25T08:16:04;10.60;99.90
74171;DHT22;62526;50.948;6.590;2023-04-25T08:18:31;10.60;99.90
74171;DHT22;62526;50.948;6.590;2023-04-25T08:20:58;10.60;99.90
74171;DHT22;62526;50.948;6.590;2023-04-25T08:23:25;10.50;99.90
74171;DHT22;62526;50.948;6.590;2023-04-25T08:25:51;10.40;99.90
74171;DHT22;62526;50.948;6.590;2023-04-25T08:28:18;10.40;99.90
74171;DHT22;62526;50.948;6.590;2023-04-25T08:30:45;10.70;99.90
74171;DHT22;62526;50.948;6.590;2023-04-25T08:33:11;10.90;99.90
74171;DHT22;62526;50.948;6.590;2023-04-25T08:35:38;11.20;99.90
74171;DHT22;62526;50.948;6.590;2023-04-25T08:38:04;11.20;99.90
74171;DHT22;62526;50.948;6.590;2023-04-25T08:40:31;11.20;99.90
74171;DHT22;62526;50.948;6.590;2023-04-25T08:42:58;11.30;99.90
74171;DHT22;62526;50.948;6.590;2023-04-25T08:45:26;11.30;99.90
74171;DHT22;62526;50.948;6.590;2023-04-25T08:47:51;11.20;99.90
74171;DHT22;62526;50.948;6.590;2023-04-25T08:50:18;10.80;99.90
74171;DHT22;62526;50.948;6.590;2023-04-25T08:52:44;11.10;99.90
74171;DHT22;62526;50.948;6.590;2023-04-25T08:55:12;11.20;99.90
74171;DHT22;62526;50.948;6.590;2023-04-25T08:57:38;11.20;99.90
74171;DHT22;62526;50.948;6.590;2023-04-25T09:00:05;11.20;99.90
74171;DHT22;62526;50.948;6.590;2023-04-25T09:02:32;11.20;99.90
74171;DHT22;62526;50.948;6.590;2023-04-25T09:04:59;11.30;99.90
74171;DHT22;62526;50.948;6.590;2023-04-25T09:07:25;11.40;99.90
74171;DHT22;62526;50.948;6.590;2023-04-25T09:09:52;11.70;99.90
74171;DHT22;62526;50.948;6.590;2023-04-25T09:12:19;11.00;99.90
74171;DHT22;62526;50.948;6.590;2023-04-25T09:15:00;11.10;99.90
74171;DHT22;62526;50.948;6.590;2023-04-25T09:17:12;10.80;99.90
74171;DHT22;62526;50.948;6.590;2023-04-25T09:19:38;10.60;99.90
74171;DHT22;62526;50.948;6.590;2023-04-25T09:22:05;10.00;99.90
74171;DHT22;62526;50.948;6.590;2023-04-25T09:24:37;10.10;99.90
74171;DHT22;62526;50.948;6.590;2023-04-25T09:27:04;10.40;99.90
74171;DHT22;62526;50.948;6.590;2023-04-25T09:29:32;10.60;99.90
74171;DHT22;62526;50.948;6.590;2023-04-25T09:32:11;10.90;99.90
74171;DHT22;62526;50.948;6.590;2023-04-25T09:34:40;11.00;99.90
74171;DHT22;62526;50.948;6.590;2023-04-25T09:37:07;11.20;99.90
74171;DHT22;62526;50.948;6.590;2023-04-25T09:39:33;11.40;99.90
74171;DHT22;62526;50.948;6.590;2023-04-25T09:42:00;11.70;99.90
74171;DHT22;62526;50.948;6.590;2023-04-25T09:44:26;11.90;99.90
74171;DHT22;62526;50.948;6.590;2023-04-25T09:46:53;11.50;99.90
74171;DHT22;62526;50.948;6.590;2023-04-25T09:49:20;11.50;99.90
74171;DHT22;62526;50.948;6.590;2023-04-25T09:51:54;11.60;99.90
74171;DHT22;62526;50.948;6.590;2023-04-25T09:54:20;11.60;99.90
74171;DHT22;62526;50.948;6.590;2023-04-25T09:56:46;11.50;99.90
74171;DHT22;62526;50.948;6.590;2023-04-25T09:59:13;11.50;99.90
74171;DHT22;62526;50.948;6.590;2023-04-25T10:01:39;11.60;99.90
74171;DHT22;62526;50.948;6.590;2023-04-25T10:04:06;11.60;99.90
74171;DHT22;62526;50.948;6.590;2023-04-25T10:06:33;11.60;99.90
74171;DHT22;62526;50.948;6.590;2023-04-25T10:08:59;11.60;99.90
74171;DHT22;62526;50.948;6.590;2023-04-25T10:11:26;11.40;99.90
74171;DHT22;62526;50.948;6.590;2023-04-25T10:13:52;11.40;99.90
74171;DHT22;62526;50.948;6.590;2023-04-25T10:16:19;11.70;99.90
74171;DHT22;62526;50.948;6.590;2023-04-25T10:18:46;11.70;99.90
74171;DHT22;62526;50.948;6.590;2023-04-25T10:21:12;11.80;99.90
74171;DHT22;62526;50.948;6.590;2023-04-25T10:23:39;12.20;99.90
74171;DHT22;62526;50.948;6.590;2023-04-25T10:26:05;12.70;99.90
74171;DHT22;62526;50.948;6.590;2023-04-25T10:28:54;13.00;99.90
74171;DHT22;62526;50.948;6.590;2023-04-25T10:31:03;13.20;99.90
74171;DHT22;62526;50.948;6.590;2023-04-25T10:33:32;12.50;99.90
74171;DHT22;62526;50.948;6.590;2023-04-25T10:35:58;11.70;99.90
74171;DHT22;62526;50.948;6.590;2023-04-25T10:38:25;11.20;99.90
74171;DHT22;62526;50.948;6.590;2023-04-25T10:41:03;11.00;99.90
74171;DHT22;62526;50.948;6.590;2023-04-25T10:43:34;11.00;99.90
74171;DHT22;62526;50.948;6.590;2023-04-25T10:46:00;11.10;99.90
74171;DHT22;62526;50.948;6.590;2023-04-25T10:48:26;11.00;99.90
74171;DHT22;62526;50.948;6.590;2023-04-25T10:51:10;10.70;99.90
74171;DHT22;62526;50.948;6.590;2023-04-25T10:53:36;10.80;99.90
74171;DHT22;62526;50.948;6.590;2023-04-25T10:56:11;10.90;99.90
74171;DHT22;62526;50.948;6.590;2023-04-25T10:58:41;11.10;99.90
74171;DHT22;62526;50.948;6.590;2023-04-25T11:01:04;11.30;99.90
74171;DHT22;62526;50.948;6.590;2023-04-25T11:03:30;11.50;99.90
74171;DHT22;62526;50.948;6.590;2023-04-25T11:05:57;11.60;99.90
74171;DHT22;62526;50.948;6.590;2023-04-25T11:08:28;12.00;99.90
74171;DHT22;62526;50.948;6.590;2023-04-25T11:10:50;12.60;99.90
74171;DHT22;62526;50.948;6.590;2023-04-25T11:13:19;13.00;99.90
74171;DHT22;62526;50.948;6.590;2023-04-25T11:15:43;13.20;99.90
74171;DHT22;62526;50.948;6.590;2023-04-25T11:18:10;13.10;99.80
74171;DHT22;62526;50.948;6.590;2023-04-25T11:20:37;12.90;98.90
74171;DHT22;62526;50.948;6.590;2023-04-25T11:23:04;12.80;98.90
74171;DHT22;62526;50.948;6.590;2023-04-25T11:25:30;12.70;99.90
74171;DHT22;62526;50.948;6.590;2023-04-25T11:27:57;12.70;99.90
74171;DHT22;62526;50.948;6.590;2023-04-25T11:30:24;12.60;98.00
74171;DHT22;62526;50.948;6.590;2023-04-25T11:32:50;12.50;97.20
74171;DHT22;62526;50.948;6.590;2023-04-25T11:35:17;12.30;97.20
74171;DHT22;62526;50.948;6.590;2023-04-25T11:37:43;12.80;99.90
74171;DHT22;62526;50.948;6.590;2023-04-25T11:40:12;13.40;99.90
74171;DHT22;62526;50.948;6.590;2023-04-25T11:42:38;13.70;99.00
74171;DHT22;62526;50.948;6.590;2023-04-25T11:45:05;13.70;97.10
74171;DHT22;62526;50.948;6.590;2023-04-25T11:47:32;13.80;96.30
74171;DHT22;62526;50.948;6.590;2023-04-25T11:49:59;13.80;96.20
74171;DHT22;62526;50.948;6.590;2023-04-25T11:52:43;14.20;94.10
74171;DHT22;62526;50.948;6.590;2023-04-25T11:55:10;14.50;88.00
74171;DHT22;62526;50.948;6.590;2023-04-25T11:57:37;14.90;90.00
74171;DHT22;62526;50.948;6.590;2023-04-25T12:00:10;15.20;80.70
74171;DHT22;62526;50.948;6.590;2023-04-25T12:02:37;15.70;75.00
74171;DHT22;62526;50.948;6.590;2023-04-25T12:05:07;16.10;71.80
74171;DHT22;62526;50.948;6.590;2023-04-25T12:07:33;16.20;62.70
74171;DHT22;62526;50.948;6.590;2023-04-25T12:10:04;16.40;57.30
74171;DHT22;62526;50.948;6.590;2023-04-25T12:12:27;16.80;58.60
74171;DHT22;62526;50.948;6.590;2023-04-25T12:14:54;17.00;53.50
74171;DHT22;62526;50.948;6.590;2023-04-25T12:17:21;16.40;54.50
74171;DHT22;62526;50.948;6.590;2023-04-25T12:19:47;15.50;54.90
74171;DHT22;62526;50.948;6.590;2023-04-25T12:22:19;15.30;58.20
74171;DHT22;62526;50.948;6.590;2023-04-25T12:24:45;15.10;56.30
74171;DHT22;62526;50.948;6.590;2023-04-25T12:27:13;15.00;65.50
74171;DHT22;62526;50.948;6.590;2023-04-25T12:29:38;14.10;78.20
74171;DHT22;62526;50.948;6.590;2023-04-25T12:32:05;13.80;73.50
74171;DHT22;62526;50.948;6.590;2023-04-25T12:34:32;13.40;80.20
74171;DHT22;62526;50.948;6.590;2023-04-25T12:36:59;13.10;90.60
74171;DHT22;62526;50.948;6.590;2023-04-25T12:39:25;12.70;99.90
74171;DHT22;62526;50.948;6.590;2023-04-25T12:41:52;12.30;99.90
74171;DHT22;62526;50.948;6.590;2023-04-25T12:44:19;12.00;99.90
74171;DHT22;62526;50.948;6.590;2023-04-25T12:46:46;11.70;99.90
74171;DHT22;62526;50.948;6.590;2023-04-25T12:49:12;11.50;99.90
74171;DHT22;62526;50.948;6.590;2023-04-25T12:51:39;11.50;99.90
74171;DHT22;62526;50.948;6.590;2023-04-25T12:54:06;11.40;99.90
74171;DHT22;62526;50.948;6.590;2023-04-25T12:56:32;11.40;99.90
74171;DHT22;62526;50.948;6.590;2023-04-25T12:58:59;11.50;99.90
74171;DHT22;62526;50.948;6.590;2023-04-25T13:01:25;11.60;99.90
74171;DHT22;62526;50.948;6.590;2023-04-25T13:03:52;11.90;99.90
74171;DHT22;62526;50.948;6.590;2023-04-25T13:06:19;12.10;99.90
74171;DHT22;62526;50.948;6.590;2023-04-25T13:08:45;12.40;99.90
74171;DHT22;62526;50.948;6.590;2023-04-25T13:11:12;12.60;99.90
74171;DHT22;62526;50.948;6.590;2023-04-25T13:13:41;12.90;99.90
74171;DHT22;62526;50.948;6.590;2023-04-25T13:16:08;13.10;99.90
74171;DHT22;62526;50.948;6.590;2023-04-25T13:18:34;14.20;96.00
74171;DHT22;62526;50.948;6.590;2023-04-25T13:21:01;15.60;66.40
74171;DHT22;62526;50.948;6.590;2023-04-25T13:23:28;16.70;64.30
74171;DHT22;62526;50.948;6.590;2023-04-25T13:25:54;18.00;55.80
74171;DHT22;62526;50.948;6.590;2023-04-25T13:28:21;18.50;49.30
74171;DHT22;62526;50.948;6.590;2023-04-25T13:30:48;18.60;45.90
74171;DHT22;62526;50.948;6.590;2023-04-25T13:33:14;17.80;46.00
74171;DHT22;62526;50.948;6.590;2023-04-25T13:35:41;17.00;48.80
74171;DHT22;62526;50.948;6.590;2023-04-25T13:38:07;16.30;51.20
74171;DHT22;62526;50.948;6.590;2023-04-25T13:40:34;15.50;54.40
74171;DHT22;62526;50.948;6.590;2023-04-25T13:43:01;14.80;59.00
74171;DHT22;62526;50.948;6.590;2023-04-25T13:45:27;14.20;64.30
74171;DHT22;62526;50.948;6.590;2023-04-25T13:47:54;13.60;70.10
74171;DHT22;62526;50.948;6.590;2023-04-25T13:50:21;13.40;81.80
74171;DHT22;62526;50.948;6.590;2023-04-25T13:52:47;13.10;74.00
74171;DHT22;62526;50.948;6.590;2023-04-25T13:55:14;12.80;72.10
74171;DHT22;62526;50.948;6.590;2023-04-25T13:57:40;12.60;72.90
74171;DHT22;62526;50.948;6.590;2023-04-25T14:00:07;12.50;79.10
74171;DHT22;62526;50.948;6.590;2023-04-25T14:02:35;12.40;76.50
74171;DHT22;62526;50.948;6.590;2023-04-25T14:05:02;12.20;76.30
74171;DHT22;62526;50.948;6.590;2023-04-25T14:07:28;12.10;96.90
74171;DHT22;62526;50.948;6.590;2023-04-25T14:09:55;11.90;99.90
74171;DHT22;62526;50.948;6.590;2023-04-25T14:12:22;11.70;99.90
74171;DHT22;62526;50.948;6.590;2023-04-25T14:14:48;11.80;99.90
74171;DHT22;62526;50.948;6.590;2023-04-25T14:17:15;12.00;99.90
74171;DHT22;62526;50.948;6.590;2023-04-25T14:19:41;12.80;99.90
74171;DHT22;62526;50.948;6.590;2023-04-25T14:22:09;13.20;99.90
74171;DHT22;62526;50.948;6.590;2023-04-25T14:24:35;13.30;99.80
74171;DHT22;62526;50.948;6.590;2023-04-25T14:27:02;13.40;98.10
74171;DHT22;62526;50.948;6.590;2023-04-25T14:29:29;13.40;95.40
74171;DHT22;62526;50.948;6.590;2023-04-25T14:31:55;13.40;90.80
74171;DHT22;62526;50.948;6.590;2023-04-25T14:34:22;13.70;87.00
74171;DHT22;62526;50.948;6.590;2023-04-25T14:36:49;14.60;87.80
74171;DHT22;62526;50.948;6.590;2023-04-25T14:39:15;15.40;68.00
74171;DHT22;62526;50.948;6.590;2023-04-25T14:41:43;15.50;67.70
74171;DHT22;62526;50.948;6.590;2023-04-25T14:44:09;15.30;62.60
74171;DHT22;62526;50.948;6.590;2023-04-25T14:46:36;15.50;58.40
74171;DHT22;62526;50.948;6.590;2023-04-25T14:49:03;16.10;58.50
74171;DHT22;62526;50.948;6.590;2023-04-25T14:51:29;17.40;58.40
74171;DHT22;62526;50.948;6.590;2023-04-25T14:53:56;18.00;49.00
74171;DHT22;62526;50.948;6.590;2023-04-25T14:56:22;18.30;49.30
74171;DHT22;62526;50.948;6.590;2023-04-25T14:58:49;18.10;49.30
74171;DHT22;62526;50.948;6.590;2023-04-25T15:01:15;18.30;47.30
74171;DHT22;62526;50.948;6.590;2023-04-25T15:03:42;17.60;46.20
74171;DHT22;62526;50.948;6.590;2023-04-25T15:06:09;17.60;47.20
74171;DHT22;62526;50.948;6.590;2023-04-25T15:08:35;17.80;45.50
74171;DHT22;62526;50.948;6.590;2023-04-25T15:11:02;17.50;45.70
74171;DHT22;62526;50.948;6.590;2023-04-25T15:13:28;18.80;42.40
74171;DHT22;62526;50.948;6.590;2023-04-25T15:15:55;19.20;39.10
74171;DHT22;62526;50.948;6.590;2023-04-25T15:18:22;19.50;39.40
74171;DHT22;62526;50.948;6.590;2023-04-25T15:20:50;19.50;39.60
74171;DHT22;62526;50.948;6.590;2023-04-25T15:23:16;19.90;39.70
74171;DHT22;62526;50.948;6.590;2023-04-25T15:25:42;20.40;37.40
74171;DHT22;62526;50.948;6.590;2023-04-25T15:28:09;20.20;36.90
74171;DHT22;62526;50.948;6.590;2023-04-25T15:30:36;20.80;39.80
74171;DHT22;62526;50.948;6.590;2023-04-25T15:33:02;21.60;39.50
74171;DHT22;62526;50.948;6.590;2023-04-25T15:35:36;22.30;37.20